createdAt,value
2022-11-08T00:00:24.557Z,-90.00
2022-11-08T00:00:36.735Z,-90.00
2022-11-08T00:01:37.665Z,-91.00
2022-11-08T00:02:37.564Z,-91.00
2022-11-08T00:03:37.837Z,-91.00
2022-11-08T00:04:39.329Z,-90.00
2022-11-08T00:05:39.594Z,-92.00
2022-11-08T00:06:40.028Z,-91.00
2022-11-08T00:07:39.665Z,-91.00
2022-11-08T00:08:40.982Z,-90.00
2022-11-08T00:09:40.372Z,-91.00
2022-11-08T00:10:41.990Z,-91.00
2022-11-08T00:11:42.268Z,-90.00
2022-11-08T00:12:42.580Z,-92.00
2022-11-08T00:13:42.994Z,-90.00
2022-11-08T00:14:42.302Z,-90.00
2022-11-08T00:15:43.668Z,-90.00
2022-11-08T00:16:43.296Z,-90.00
2022-11-08T00:17:44.849Z,-91.00
2022-11-08T00:18:45.297Z,-90.00
2022-11-08T00:19:45.759Z,-90.00
2022-11-08T00:20:45.309Z,-91.00
2022-11-08T00:21:45.956Z,-90.00
2022-11-08T00:21:54.701Z,-90.00
2022-11-08T00:22:54.621Z,-90.00
2022-11-08T00:23:55.982Z,-90.00
2022-11-08T00:24:56.404Z,-90.00
2022-11-08T00:25:56.807Z,-91.00
2022-11-08T00:26:56.215Z,-90.00
2022-11-08T00:27:57.620Z,-90.00
2022-11-08T00:28:57.958Z,-90.00
2022-11-08T00:29:58.698Z,-90.00
2022-11-08T00:30:59.025Z,-90.00
2022-11-08T00:31:58.426Z,-90.00
2022-11-08T00:32:59.765Z,-90.00
2022-11-08T00:33:59.988Z,-91.00
2022-11-08T00:35:00.536Z,-90.00
2022-11-08T00:36:00.975Z,-90.00
2022-11-08T00:37:01.875Z,-91.00
2022-11-08T00:38:02.195Z,-91.00
2022-11-08T00:39:03.174Z,-90.00
2022-11-08T00:40:03.927Z,-90.00
2022-11-08T00:41:04.458Z,-91.00
2022-11-08T00:42:05.042Z,-90.00
2022-11-08T00:42:14.699Z,-90.00
2022-11-08T00:43:16.244Z,-90.00
2022-11-08T00:44:15.869Z,-90.00
2022-11-08T00:45:17.193Z,-90.00
2022-11-08T00:46:18.299Z,-91.00
2022-11-08T00:47:16.589Z,-90.00
2022-11-08T00:48:19.824Z,-90.00
2022-11-08T00:49:17.791Z,-90.00
2022-11-08T00:50:17.979Z,-90.00
2022-11-08T00:51:19.511Z,-90.00
2022-11-08T00:52:19.706Z,-89.00
2022-11-08T00:53:19.019Z,-88.00
2022-11-08T00:54:21.474Z,-90.00
2022-11-08T00:55:21.175Z,-90.00
2022-11-08T00:56:21.957Z,-90.00
2022-11-08T00:57:27.539Z,-90.00
2022-11-08T00:58:27.110Z,-90.00
2022-11-08T00:59:22.046Z,-90.00
2022-11-08T01:00:24.584Z,-90.00
2022-11-08T01:01:22.704Z,-91.00
2022-11-08T01:02:23.607Z,-90.00
2022-11-08T01:03:23.831Z,-90.00
2022-11-08T01:03:32.501Z,-89.00
2022-11-08T01:04:33.506Z,-90.00
2022-11-08T01:05:32.872Z,-90.00
2022-11-08T01:06:33.838Z,-90.00
2022-11-08T01:07:33.383Z,-90.00
2022-11-08T01:08:34.756Z,-90.00
2022-11-08T01:09:34.227Z,-90.00
2022-11-08T01:10:34.678Z,-90.00
2022-11-08T01:11:35.993Z,-91.00
2022-11-08T01:12:36.323Z,-90.00
2022-11-08T01:13:36.606Z,-91.00
2022-11-08T01:14:36.955Z,-90.00
2022-11-08T01:15:36.375Z,-90.00
2022-11-08T01:16:36.509Z,-90.00
2022-11-08T01:17:36.772Z,-89.00
2022-11-08T01:18:37.004Z,-89.00
2022-11-08T01:19:38.541Z,-90.00
2022-11-08T01:20:38.935Z,-89.00
2022-11-08T01:21:39.405Z,-90.00
2022-11-08T01:22:39.773Z,-90.00
2022-11-08T01:23:40.196Z,-90.00
2022-11-08T01:24:40.408Z,-90.00
2022-11-08T01:24:49.052Z,-88.00
2022-11-08T01:25:50.643Z,-89.00
2022-11-08T01:26:49.967Z,-91.00
2022-11-08T01:27:51.410Z,-90.00
2022-11-08T01:28:52.028Z,-90.00
2022-11-08T01:29:52.429Z,-89.00
2022-11-08T01:30:51.461Z,-90.00
2022-11-08T01:31:51.932Z,-90.00
2022-11-08T01:32:52.743Z,-89.00
2022-11-08T01:33:54.141Z,-90.00
2022-11-08T01:34:53.573Z,-90.00
2022-11-08T01:35:55.128Z,-89.00
2022-11-08T01:36:56.323Z,-90.00
2022-11-08T01:37:55.632Z,-90.00
2022-11-08T01:38:56.129Z,-91.00
2022-11-08T01:39:55.688Z,-91.00
2022-11-08T01:40:57.058Z,-90.00
2022-11-08T01:41:57.486Z,-90.00
2022-11-08T01:42:58.239Z,-90.00
2022-11-08T01:43:58.884Z,-89.00
2022-11-08T01:44:07.525Z,-89.00
2022-11-08T01:45:08.696Z,-89.00
2022-11-08T01:46:09.085Z,-89.00
2022-11-08T01:47:09.373Z,-90.00
2022-11-08T01:48:08.597Z,-90.00
2022-11-08T01:49:09.774Z,-90.00
2022-11-08T01:50:09.956Z,-90.00
2022-11-08T01:51:10.313Z,-89.00
2022-11-08T01:52:09.587Z,-90.00
2022-11-08T03:43:13.091Z,-88.00
2022-11-08T03:44:13.939Z,-89.00
2022-11-08T03:45:15.126Z,-89.00
2022-11-08T03:46:14.737Z,-89.00
2022-11-08T03:47:16.044Z,-90.00
2022-11-08T03:48:17.230Z,-90.00
2022-11-08T03:49:16.116Z,-89.00
2022-11-08T03:50:17.835Z,-89.00
2022-11-08T03:51:18.322Z,-88.00
2022-11-08T03:52:19.169Z,-89.00
2022-11-08T03:53:19.869Z,-90.00
2022-11-08T03:54:20.799Z,-90.00
2022-11-08T03:54:29.535Z,-89.00
2022-11-08T03:55:31.217Z,-89.00
2022-11-08T03:56:31.885Z,-88.00
2022-11-08T03:57:59.768Z,-88.00
2022-11-08T03:59:00.522Z,-90.00
2022-11-08T04:00:00.414Z,-89.00
2022-11-08T04:01:01.863Z,-89.00
2022-11-08T04:02:01.108Z,-89.00
2022-11-08T04:03:01.895Z,-89.00
2022-11-08T04:04:03.876Z,-89.00
2022-11-08T04:05:04.753Z,-90.00
2022-11-08T04:06:04.858Z,-90.00
2022-11-08T04:07:05.606Z,-89.00
2022-11-08T04:08:06.218Z,-89.00
2022-11-08T04:09:06.961Z,-89.00
2022-11-08T04:10:07.388Z,-87.00
2022-11-08T04:11:08.036Z,-89.00
2022-11-08T04:12:08.878Z,-90.00
2022-11-08T04:13:09.435Z,-89.00
2022-11-08T04:14:10.092Z,-89.00
2022-11-08T04:15:09.427Z,-89.00
2022-11-08T04:16:13.916Z,-90.00
2022-11-08T04:17:10.875Z,-89.00
2022-11-08T04:18:11.905Z,-89.00
2022-11-08T04:19:11.797Z,-90.00
2022-11-08T04:20:12.941Z,-89.00
2022-11-08T04:20:21.616Z,-87.00
2022-11-08T04:21:23.251Z,-89.00
2022-11-08T04:22:23.225Z,-89.00
2022-11-08T04:23:23.638Z,-89.00
2022-11-08T04:24:24.488Z,-89.00
2022-11-08T04:25:25.224Z,-88.00
2022-11-08T04:26:25.711Z,-89.00
2022-11-08T04:27:26.441Z,-89.00
2022-11-08T04:28:27.062Z,-89.00
2022-11-08T04:29:27.477Z,-90.00
2022-11-08T04:30:26.628Z,-89.00
2022-11-08T04:31:28.490Z,-88.00
2022-11-08T04:32:28.861Z,-89.00
2022-11-08T04:33:29.756Z,-89.00
2022-11-08T04:34:29.557Z,-88.00
2022-11-08T04:35:31.541Z,-89.00
2022-11-08T04:36:31.762Z,-89.00
2022-11-08T04:37:32.022Z,-89.00
2022-11-08T04:38:32.391Z,-89.00
2022-11-08T04:38:41.399Z,-88.00
2022-11-08T04:39:42.318Z,-88.00
2022-11-08T04:40:42.663Z,-88.00
2022-11-08T04:41:44.602Z,-89.00
2022-11-08T04:43:18.818Z,-88.00
2022-11-08T04:44:19.560Z,-88.00
2022-11-08T04:45:20.310Z,-87.00
2022-11-08T04:46:20.760Z,-88.00
2022-11-08T04:47:22.011Z,-89.00
2022-11-08T04:48:22.826Z,-88.00
2022-11-08T04:49:23.030Z,-88.00
2022-11-08T04:50:24.026Z,-88.00
2022-11-08T04:51:24.974Z,-88.00
2022-11-08T04:52:25.912Z,-88.00
2022-11-08T04:53:25.777Z,-88.00
2022-11-08T04:54:27.726Z,-89.00
2022-11-08T04:55:27.803Z,-88.00
2022-11-08T04:56:28.748Z,-89.00
2022-11-08T04:57:28.625Z,-89.00
2022-11-08T04:58:30.520Z,-89.00
2022-11-08T04:59:31.482Z,-88.00
2022-11-08T05:00:32.063Z,-88.00
2022-11-08T05:01:31.802Z,-89.00
2022-11-08T05:02:32.110Z,-89.00
2022-11-08T05:03:32.844Z,-89.00
2022-11-08T05:03:41.478Z,-88.00
2022-11-08T05:04:42.969Z,-88.00
2022-11-08T05:05:43.839Z,-87.00
2022-11-08T05:06:43.896Z,-88.00
2022-11-08T05:07:44.045Z,-88.00
2022-11-08T05:08:44.769Z,-88.00
2022-11-08T05:09:45.227Z,-88.00
2022-11-08T05:10:45.753Z,-88.00
2022-11-08T05:11:46.572Z,-88.00
2022-11-08T05:12:47.420Z,-88.00
2022-11-08T05:13:48.000Z,-87.00
2022-11-08T05:14:48.564Z,-89.00
2022-11-08T05:15:49.350Z,-88.00
2022-11-08T05:16:48.392Z,-89.00
2022-11-08T05:17:49.910Z,-89.00
2022-11-08T05:18:50.759Z,-88.00
2022-11-08T05:19:51.318Z,-88.00
2022-11-08T05:20:51.482Z,-88.00
2022-11-08T05:21:52.060Z,-89.00
2022-11-08T05:22:01.187Z,-89.00
2022-11-08T05:23:01.219Z,-88.00
2022-11-08T05:24:02.415Z,-89.00
2022-11-08T05:25:02.333Z,-88.00
2022-11-08T05:26:02.577Z,-89.00
2022-11-08T05:27:03.955Z,-88.00
2022-11-08T05:28:03.970Z,-89.00
2022-11-08T05:29:03.205Z,-86.00
2022-11-08T05:30:04.597Z,-88.00
2022-11-08T05:31:04.339Z,-89.00
2022-11-08T05:32:05.286Z,-88.00
2022-11-08T05:33:06.738Z,-88.00
2022-11-08T05:34:07.001Z,-88.00
2022-11-08T05:35:07.940Z,-88.00
2022-11-08T05:36:08.846Z,-89.00
2022-11-08T05:37:09.018Z,-87.00
2022-11-08T05:38:09.520Z,-89.00
2022-11-08T05:39:09.883Z,-88.00
2022-11-08T05:40:10.019Z,-88.00
2022-11-08T05:41:10.194Z,-88.00
2022-11-08T05:42:10.908Z,-88.00
2022-11-08T05:43:10.031Z,-89.00
2022-11-08T05:44:10.668Z,-87.00
2022-11-08T05:44:19.827Z,-88.00
2022-11-08T05:45:21.746Z,-88.00
2022-11-08T05:46:22.648Z,-88.00
2022-11-08T05:47:22.650Z,-87.00
2022-11-08T05:48:24.361Z,-88.00
2022-11-08T05:49:24.554Z,-89.00
2022-11-08T05:50:25.186Z,-88.00
2022-11-08T05:51:25.199Z,-88.00
2022-11-08T05:52:25.418Z,-88.00
2022-11-08T05:53:24.477Z,-88.00
2022-11-08T05:54:26.001Z,-89.00
2022-11-08T05:55:26.558Z,-89.00
2022-11-08T05:56:27.073Z,-89.00
2022-11-08T05:57:27.905Z,-89.00
2022-11-08T05:58:28.697Z,-89.00
2022-11-08T05:59:29.511Z,-88.00
2022-11-08T06:00:30.195Z,-88.00
2022-11-08T06:01:30.432Z,-88.00
2022-11-08T06:02:30.500Z,-89.00
2022-11-08T06:03:31.175Z,-88.00
2022-11-08T06:04:30.882Z,-88.00
2022-11-08T06:04:39.988Z,-88.00
2022-11-08T06:05:41.948Z,-88.00
2022-11-08T06:06:42.136Z,-89.00
2022-11-08T06:07:42.361Z,-88.00
2022-11-08T06:08:47.459Z,-90.00
2022-11-08T06:09:41.679Z,-88.00
2022-11-08T06:10:42.862Z,-88.00
2022-11-08T06:11:43.881Z,-88.00
2022-11-08T06:12:42.875Z,-89.00
2022-11-08T06:13:44.526Z,-89.00
2022-11-08T06:14:45.173Z,-89.00
2022-11-08T06:15:45.449Z,-88.00
2022-11-08T06:16:44.913Z,-88.00
2022-11-08T06:17:45.062Z,-88.00
2022-11-08T06:18:46.633Z,-88.00
2022-11-08T06:19:47.107Z,-89.00
2022-11-08T06:20:47.830Z,-88.00
2022-11-08T06:21:48.150Z,-87.00
2022-11-08T06:22:47.618Z,-88.00
2022-11-08T06:23:49.429Z,-88.00
2022-11-08T06:23:58.504Z,-87.00
2022-11-08T06:24:58.530Z,-87.00
2022-11-08T06:25:59.655Z,-89.00
2022-11-08T06:27:00.314Z,-88.00
2022-11-08T06:27:59.694Z,-88.00
2022-11-08T06:29:01.545Z,-88.00
2022-11-08T06:30:01.991Z,-87.00
2022-11-08T06:31:02.515Z,-89.00
2022-11-08T06:32:02.068Z,-88.00
2022-11-08T06:33:02.689Z,-89.00
2022-11-08T06:34:04.630Z,-89.00
2022-11-08T06:35:04.718Z,-89.00
2022-11-08T06:36:04.841Z,-89.00
2022-11-08T06:37:05.769Z,-88.00
2022-11-08T06:38:09.307Z,-88.00
2022-11-08T06:39:06.357Z,-88.00
2022-11-08T06:40:08.110Z,-88.00
2022-11-08T06:41:07.849Z,-88.00
2022-11-08T06:42:08.603Z,-88.00
2022-11-08T06:43:11.051Z,-88.00
2022-11-08T06:44:09.905Z,-88.00
2022-11-08T06:45:11.179Z,-87.00
2022-11-08T06:45:21.826Z,-87.00
2022-11-08T06:46:23.701Z,-87.00
2022-11-08T06:47:23.493Z,-88.00
2022-11-08T06:48:24.299Z,-88.00
2022-11-08T06:49:25.976Z,-88.00
2022-11-08T06:50:25.271Z,-87.00
2022-11-08T06:51:25.890Z,-87.00
2022-11-08T06:52:27.524Z,-87.00
2022-11-08T06:53:27.213Z,-88.00
2022-11-08T06:54:28.937Z,-89.00
2022-11-08T06:55:29.408Z,-89.00
2022-11-08T06:56:30.163Z,-87.00
2022-11-08T06:58:05.902Z,-87.00
2022-11-08T06:59:05.638Z,-89.00
2022-11-08T07:00:07.473Z,-89.00
2022-11-08T07:01:06.762Z,-89.00
2022-11-08T07:02:34.892Z,-85.00
2022-11-08T07:03:35.718Z,-86.00
2022-11-08T07:04:36.488Z,-89.00
2022-11-08T07:05:38.256Z,-88.00
2022-11-08T07:06:39.014Z,-88.00
2022-11-08T07:07:39.210Z,-88.00
2022-11-08T07:08:39.307Z,-89.00
2022-11-08T07:09:39.952Z,-91.00
2022-11-08T07:10:40.698Z,-89.00
2022-11-08T07:11:41.505Z,-87.00
2022-11-08T07:12:41.127Z,-89.00
2022-11-08T07:13:41.812Z,-88.00
2022-11-08T07:14:43.055Z,-89.00
2022-11-08T07:15:43.959Z,-88.00
2022-11-08T07:16:44.657Z,-89.00
2022-11-08T07:17:45.168Z,-89.00
2022-11-08T07:18:44.895Z,-87.00
2022-11-08T07:19:45.306Z,-88.00
2022-11-08T07:20:47.276Z,-89.00
2022-11-08T07:21:47.255Z,-88.00
2022-11-08T07:22:48.171Z,-89.00
2022-11-08T07:23:48.805Z,-89.00
2022-11-08T07:23:57.472Z,-88.00
2022-11-08T07:24:57.801Z,-90.00
2022-11-08T07:25:59.431Z,-89.00
2022-11-08T07:27:00.517Z,-88.00
2022-11-08T07:27:59.525Z,-88.00
2022-11-08T07:28:59.289Z,-90.00
2022-11-08T07:30:00.629Z,-89.00
2022-11-08T07:31:00.093Z,-88.00
2022-11-08T07:32:00.544Z,-87.00
2022-11-08T07:33:00.626Z,-88.00
2022-11-08T07:34:00.945Z,-87.00
2022-11-08T07:35:02.061Z,-88.00
2022-11-08T07:36:01.745Z,-89.00
2022-11-08T07:37:03.595Z,-88.00
2022-11-08T07:38:04.281Z,-88.00
2022-11-08T07:39:06.768Z,-89.00
2022-11-08T07:40:04.136Z,-88.00
2022-11-08T07:41:05.000Z,-89.00
2022-11-08T07:42:06.446Z,-88.00
2022-11-08T07:43:12.327Z,-88.00
2022-11-08T07:44:06.789Z,-87.00
2022-11-08T07:45:07.381Z,-88.00
2022-11-08T07:46:09.100Z,-88.00
2022-11-08T07:47:08.933Z,-87.00
2022-11-08T07:47:17.576Z,-86.00
2022-11-08T07:48:19.281Z,-89.00
2022-11-08T07:49:18.422Z,-88.00
2022-11-08T07:50:19.275Z,-89.00
2022-11-08T07:51:20.875Z,-87.00
2022-11-08T07:52:20.518Z,-88.00
2022-11-08T07:53:22.485Z,-87.00
2022-11-08T07:54:22.750Z,-88.00
2022-11-08T07:55:23.316Z,-88.00
2022-11-08T07:56:23.617Z,-88.00
2022-11-08T07:57:23.632Z,-89.00
2022-11-08T07:58:23.805Z,-88.00
2022-11-08T07:59:24.075Z,-88.00
2022-11-08T08:00:24.826Z,-87.00
2022-11-08T08:01:25.199Z,-89.00
2022-11-08T08:02:24.259Z,-88.00
2022-11-08T08:03:25.142Z,-88.00
2022-11-08T08:04:25.445Z,-89.00
2022-11-08T08:05:27.297Z,-89.00
2022-11-08T08:06:28.117Z,-89.00
2022-11-08T08:07:28.928Z,-88.00
2022-11-08T08:07:37.588Z,-87.00
2022-11-08T08:08:38.594Z,-88.00
2022-11-08T08:09:39.564Z,-85.00
2022-11-08T08:10:40.260Z,-85.00
2022-11-08T08:11:40.263Z,-83.00
2022-11-08T08:12:42.223Z,-85.00
2022-11-08T08:13:41.595Z,-85.00
2022-11-08T08:14:42.961Z,-85.00
2022-11-08T08:15:42.443Z,-88.00
2022-11-08T08:16:42.566Z,-88.00
2022-11-08T08:17:43.641Z,-89.00
2022-11-08T08:18:42.966Z,-88.00
2022-11-08T08:19:43.073Z,-90.00
2022-11-08T08:20:44.867Z,-89.00
2022-11-08T08:21:44.509Z,-89.00
2022-11-08T08:22:44.662Z,-88.00
2022-11-08T08:23:46.131Z,-87.00
2022-11-08T08:24:46.265Z,-89.00
2022-11-08T08:25:46.223Z,-89.00
2022-11-08T08:26:47.846Z,-89.00
2022-11-08T08:27:48.693Z,-89.00
2022-11-08T08:28:48.653Z,-90.00
2022-11-08T08:28:58.715Z,-88.00
2022-11-08T08:30:00.333Z,-88.00
2022-11-08T08:31:01.112Z,-89.00
2022-11-08T08:32:00.299Z,-87.00
2022-11-08T08:33:26.319Z,-89.00
2022-11-08T08:34:00.647Z,-90.00
2022-11-08T08:35:00.656Z,-90.00
2022-11-08T08:36:01.522Z,-89.00
2022-11-08T08:37:01.819Z,-89.00
2022-11-08T08:38:03.056Z,-89.00
2022-11-08T08:39:03.071Z,-89.00
2022-11-08T08:40:03.483Z,-89.00
2022-11-08T08:41:04.085Z,-89.00
2022-11-08T08:42:04.723Z,-90.00
2022-11-08T08:43:03.811Z,-93.00
2022-11-08T08:44:04.652Z,-88.00
2022-11-08T08:45:08.481Z,-90.00
2022-11-08T08:46:04.898Z,-90.00
2022-11-08T08:47:06.652Z,-91.00
2022-11-08T08:48:07.340Z,-89.00
2022-11-08T08:49:08.308Z,-89.00
2022-11-08T08:50:08.029Z,-89.00
2022-11-08T08:51:09.850Z,-89.00
2022-11-08T08:51:20.820Z,-88.00
2022-11-08T08:52:22.761Z,-89.00
2022-11-08T08:53:23.729Z,-90.00
2022-11-08T08:54:29.204Z,-90.00
2022-11-08T08:55:23.239Z,-90.00
2022-11-08T08:56:24.308Z,-89.00
2022-11-08T08:57:24.953Z,-89.00
2022-11-08T08:58:25.817Z,-89.00
2022-11-08T09:01:42.021Z,-90.00
2022-11-08T09:02:27.480Z,-90.00
2022-11-08T09:03:29.388Z,-89.00
2022-11-08T09:04:30.145Z,-92.00
2022-11-08T09:05:29.541Z,-89.00
2022-11-08T09:06:31.246Z,-89.00
2022-11-08T09:07:30.664Z,-88.00
2022-11-08T09:08:31.775Z,-89.00
2022-11-08T09:09:31.197Z,-89.00
2022-11-08T09:10:33.090Z,-89.00
2022-11-08T09:11:33.888Z,-88.00
2022-11-08T09:11:42.521Z,-88.00
2022-11-08T09:12:44.272Z,-88.00
2022-11-08T09:13:44.554Z,-87.00
2022-11-08T09:14:45.483Z,-90.00
2022-11-08T09:15:46.053Z,-89.00
2022-11-08T09:16:45.930Z,-88.00
2022-11-08T09:17:48.738Z,-89.00
2022-11-08T09:18:48.292Z,-89.00
2022-11-08T09:19:50.848Z,-89.00
2022-11-08T09:20:48.711Z,-90.00
2022-11-08T09:21:48.970Z,-90.00
2022-11-08T09:22:49.617Z,-88.00
2022-11-08T09:23:51.518Z,-88.00
2022-11-08T09:24:52.370Z,-88.00
2022-11-08T09:25:52.127Z,-89.00
2022-11-08T09:26:53.033Z,-89.00
2022-11-08T09:27:54.747Z,-89.00
2022-11-08T09:28:55.727Z,-89.00
2022-11-08T09:29:54.974Z,-89.00
2022-11-08T09:30:55.706Z,-88.00
2022-11-08T09:31:56.222Z,-87.00
2022-11-08T09:33:01.203Z,-89.00
2022-11-08T09:33:56.650Z,-91.00
2022-11-08T09:34:57.425Z,-88.00
2022-11-08T09:35:57.693Z,-92.00
2022-11-08T09:36:59.310Z,-87.00
2022-11-08T09:37:07.899Z,-87.00
2022-11-08T09:38:09.622Z,-89.00
2022-11-08T09:39:10.552Z,-90.00
2022-11-08T09:40:10.607Z,-90.00
2022-11-08T09:41:10.390Z,-90.00
2022-11-08T09:42:10.954Z,-90.00
2022-11-08T09:43:12.553Z,-90.00
2022-11-08T09:44:13.075Z,-90.00
2022-11-08T09:45:13.967Z,-90.00
2022-11-08T09:46:14.420Z,-88.00
2022-11-08T09:47:16.246Z,-89.00
2022-11-08T09:48:14.298Z,-90.00
2022-11-08T09:49:16.188Z,-91.00
2022-11-08T09:50:17.008Z,-90.00
2022-11-08T09:51:16.498Z,-91.00
2022-11-08T09:52:17.519Z,-91.00
2022-11-08T09:53:18.156Z,-90.00
2022-11-08T09:53:26.783Z,-90.00
2022-11-08T09:54:28.260Z,-88.00
2022-11-08T09:55:30.987Z,-88.00
2022-11-08T09:56:28.895Z,-91.00
2022-11-08T09:57:29.230Z,-90.00
2022-11-08T09:58:30.807Z,-90.00
2022-11-08T09:59:31.690Z,-90.00
2022-11-08T10:00:30.981Z,-90.00
2022-11-08T10:01:33.013Z,-90.00
2022-11-08T10:02:32.704Z,-91.00
2022-11-08T10:03:34.601Z,-89.00
2022-11-08T10:04:33.830Z,-90.00
2022-11-08T10:05:35.564Z,-89.00
2022-11-08T10:06:37.014Z,-90.00
2022-11-08T10:07:35.000Z,-87.00
2022-11-08T10:08:36.782Z,-89.00
2022-11-08T10:09:37.108Z,-90.00
2022-11-08T10:10:37.674Z,-90.00
2022-11-08T10:11:39.373Z,-89.00
2022-11-08T10:13:12.321Z,-89.00
2022-11-08T10:14:12.436Z,-91.00
2022-11-08T10:15:13.995Z,-91.00
2022-11-08T10:16:14.680Z,-88.00
2022-11-08T10:17:14.985Z,-89.00
2022-11-08T10:18:15.704Z,-90.00
2022-11-08T10:19:16.106Z,-89.00
2022-11-08T10:20:15.679Z,-90.00
2022-11-08T10:21:17.602Z,-91.00
2022-11-08T10:22:17.190Z,-91.00
2022-11-08T10:23:19.182Z,-91.00
2022-11-08T10:24:18.307Z,-91.00
2022-11-08T10:25:18.800Z,-91.00
2022-11-08T10:26:24.110Z,-90.00
2022-11-08T10:27:20.153Z,-90.00
2022-11-08T10:28:21.447Z,-90.00
2022-11-08T10:29:22.316Z,-89.00
2022-11-08T10:30:21.820Z,-90.00
2022-11-08T10:31:22.612Z,-91.00
2022-11-08T10:32:24.844Z,-90.00
2022-11-08T10:33:23.525Z,-91.00
2022-11-08T10:34:24.950Z,-90.00
2022-11-08T10:35:25.647Z,-90.00
2022-11-08T10:35:34.240Z,-90.00
2022-11-08T10:36:36.003Z,-90.00
2022-11-08T10:37:35.492Z,-89.00
2022-11-08T10:38:36.344Z,-90.00
2022-11-08T10:39:38.337Z,-92.00
2022-11-08T10:40:38.703Z,-90.00
2022-11-08T10:41:39.285Z,-91.00
2022-11-08T10:42:39.549Z,-91.00
2022-11-08T10:43:40.389Z,-90.00
2022-11-08T10:44:41.382Z,-90.00
2022-11-08T10:45:42.000Z,-91.00
2022-11-08T10:46:42.826Z,-90.00
2022-11-08T10:47:42.488Z,-89.00
2022-11-08T10:48:43.599Z,-89.00
2022-11-08T10:49:43.611Z,-89.00
2022-11-08T10:50:43.433Z,-91.00
2022-11-08T10:51:45.344Z,-91.00
2022-11-08T10:52:45.063Z,-91.00
2022-11-08T10:53:46.280Z,-91.00
2022-11-08T10:54:46.871Z,-88.00
2022-11-08T10:54:55.565Z,-88.00
2022-11-08T10:55:55.550Z,-86.00
2022-11-08T10:56:56.823Z,-91.00
2022-11-08T10:57:57.515Z,-89.00
2022-11-08T10:58:56.541Z,-90.00
2022-11-08T10:59:58.477Z,-91.00
2022-11-08T11:00:58.866Z,-91.00
2022-11-08T11:01:59.172Z,-91.00
2022-11-08T11:02:59.397Z,-91.00
2022-11-08T11:03:59.551Z,-91.00
2022-11-08T11:05:00.410Z,-91.00
2022-11-08T11:06:00.737Z,-91.00
2022-11-08T11:07:00.976Z,-92.00
2022-11-08T11:08:01.959Z,-91.00
2022-11-08T11:09:01.054Z,-90.00
2022-11-08T11:10:02.721Z,-91.00
2022-11-08T11:11:02.800Z,-91.00
2022-11-08T11:12:02.898Z,-91.00
2022-11-08T11:13:02.181Z,-91.00
2022-11-08T11:14:03.314Z,-94.00
2022-11-08T11:15:03.424Z,-91.00
2022-11-08T11:15:12.611Z,-91.00
2022-11-08T11:16:14.472Z,-91.00
2022-11-08T11:17:15.348Z,-90.00
2022-11-08T11:18:15.410Z,-91.00
2022-11-08T11:19:15.168Z,-91.00
2022-11-08T11:20:17.095Z,-90.00
2022-11-08T11:21:17.513Z,-90.00
2022-11-08T11:22:18.274Z,-90.00
2022-11-08T11:23:18.011Z,-91.00
2022-11-08T11:24:19.519Z,-92.00
2022-11-08T11:25:18.801Z,-92.00
2022-11-08T11:26:20.137Z,-92.00
2022-11-08T11:27:19.814Z,-91.00
2022-11-08T11:28:21.427Z,-91.00
2022-11-08T11:29:20.888Z,-90.00
2022-11-08T11:30:22.065Z,-91.00
2022-11-08T11:31:22.842Z,-91.00
2022-11-08T11:32:22.819Z,-90.00
2022-11-08T11:32:31.452Z,-89.00
2022-11-08T11:33:33.206Z,-90.00
2022-11-08T11:34:32.722Z,-88.00
2022-11-08T11:35:35.772Z,-89.00
2022-11-08T11:36:37.229Z,-90.00
2022-11-08T11:37:36.218Z,-92.00
2022-11-08T11:38:35.913Z,-90.00
2022-11-08T11:39:37.611Z,-91.00
2022-11-08T11:40:38.105Z,-89.00
2022-11-08T11:41:38.370Z,-92.00
2022-11-08T11:42:46.654Z,-91.00
2022-11-08T11:43:38.423Z,-92.00
2022-11-08T11:44:38.873Z,-92.00
2022-11-08T11:45:40.802Z,-91.00
2022-11-08T11:46:41.743Z,-90.00
2022-11-08T11:47:41.010Z,-92.00
2022-11-08T11:48:43.729Z,-91.00
2022-11-08T11:49:43.209Z,-93.00
2022-11-08T11:50:44.048Z,-90.00
2022-11-08T11:51:43.894Z,-91.00
2022-11-08T11:52:43.820Z,-91.00
2022-11-08T11:53:04.719Z,-89.00
2022-11-08T11:54:06.125Z,-91.00
2022-11-08T11:55:05.928Z,-91.00
2022-11-08T11:56:07.430Z,-92.00
2022-11-08T11:57:07.823Z,-92.00
2022-11-08T11:58:08.516Z,-91.00
2022-11-08T11:59:08.825Z,-91.00
2022-11-08T12:00:09.765Z,-89.00
2022-11-08T12:01:14.057Z,-90.00
2022-11-08T12:02:09.028Z,-90.00
2022-11-08T12:03:09.527Z,-91.00
2022-11-08T12:04:09.627Z,-91.00
2022-11-08T12:05:46.212Z,-86.00
2022-11-08T12:06:43.499Z,-90.00
2022-11-08T12:07:43.969Z,-89.00
2022-11-08T12:08:44.573Z,-90.00
2022-11-08T12:09:44.619Z,-91.00
2022-11-08T12:10:45.895Z,-91.00
2022-11-08T12:11:46.573Z,-92.00
2022-11-08T12:12:47.139Z,-92.00
2022-11-08T12:13:53.135Z,-94.00
2022-11-08T12:14:47.515Z,-93.00
2022-11-08T12:15:48.986Z,-91.00
2022-11-08T12:16:48.907Z,-92.00
2022-11-08T12:17:50.245Z,-92.00
2022-11-08T12:18:51.902Z,-92.00
2022-11-08T12:19:50.823Z,-91.00
2022-11-08T12:20:51.295Z,-91.00
2022-11-08T12:21:51.448Z,-91.00
2022-11-08T12:22:52.044Z,-91.00
2022-11-08T12:23:53.545Z,-92.00
2022-11-08T12:24:53.491Z,-92.00
2022-11-08T12:25:54.904Z,-91.00
2022-11-08T12:26:54.699Z,-92.00
2022-11-08T12:27:54.931Z,-91.00
2022-11-08T12:29:25.722Z,-91.00
2022-11-08T12:30:25.739Z,-91.00
2022-11-08T12:31:27.431Z,-91.00
2022-11-08T12:32:28.315Z,-92.00
2022-11-08T12:33:29.082Z,-93.00
2022-11-08T12:34:28.229Z,-93.00
2022-11-08T12:35:28.433Z,-92.00
2022-11-08T12:36:28.621Z,-92.00
2022-11-08T12:37:36.382Z,-91.00
2022-11-08T12:38:29.328Z,-92.00
2022-11-08T12:39:30.686Z,-91.00
2022-11-08T12:40:29.813Z,-92.00
2022-11-08T12:41:31.037Z,-89.00
2022-11-08T12:42:30.240Z,-92.00
2022-11-08T12:43:30.787Z,-92.00
2022-11-08T12:44:30.815Z,-92.00
2022-11-08T12:45:31.358Z,-92.00
2022-11-08T12:46:32.468Z,-93.00
2022-11-08T12:47:32.390Z,-92.00
2022-11-08T12:48:34.162Z,-92.00
2022-11-08T12:49:34.122Z,-93.00
2022-11-08T12:50:36.948Z,-92.00
2022-11-08T12:51:35.364Z,-93.00
2022-11-08T12:52:37.048Z,-92.00
2022-11-08T12:53:36.937Z,-90.00
2022-11-08T12:54:37.348Z,-90.00
2022-11-08T12:54:46.803Z,-88.00
2022-11-08T12:55:47.459Z,-91.00
2022-11-08T12:56:48.616Z,-90.00
2022-11-08T12:57:47.963Z,-89.00
2022-11-08T12:58:49.472Z,-91.00
2022-11-08T12:59:50.418Z,-92.00
2022-11-08T13:00:51.237Z,-91.00
2022-11-08T13:01:51.123Z,-91.00
2022-11-08T13:02:53.002Z,-92.00
2022-11-08T13:03:53.701Z,-91.00
2022-11-08T13:04:54.343Z,-92.00
2022-11-08T13:05:54.152Z,-88.00
2022-11-08T13:06:53.570Z,-91.00
2022-11-08T13:07:53.931Z,-91.00
2022-11-08T13:08:55.785Z,-92.00
2022-11-08T13:09:56.393Z,-92.00
2022-11-08T13:10:56.138Z,-92.00
2022-11-08T13:11:57.429Z,-89.00
2022-11-08T13:12:57.467Z,-91.00
2022-11-08T13:13:57.575Z,-91.00
2022-11-08T13:14:06.642Z,-91.00
2022-11-08T13:15:06.707Z,-92.00
2022-11-08T13:16:08.200Z,-89.00
2022-11-08T13:17:09.047Z,-91.00
2022-11-08T13:18:08.855Z,-90.00
2022-11-08T13:19:09.447Z,-90.00
2022-11-08T13:20:09.610Z,-92.00
2022-11-08T13:21:11.283Z,-91.00
2022-11-08T13:22:12.095Z,-91.00
2022-11-08T13:23:11.843Z,-91.00
2022-11-08T13:24:38.428Z,-90.00
2022-11-08T13:25:12.565Z,-91.00
2022-11-08T13:26:12.629Z,-90.00
2022-11-08T13:27:12.760Z,-90.00
2022-11-08T13:28:14.256Z,-90.00
2022-11-08T13:29:13.654Z,-90.00
2022-11-08T13:30:14.808Z,-90.00
2022-11-08T13:31:14.892Z,-91.00
2022-11-08T13:32:14.918Z,-91.00
2022-11-08T13:33:15.112Z,-91.00
2022-11-08T13:34:15.691Z,-91.00
2022-11-08T13:35:15.579Z,-92.00
2022-11-08T13:35:24.304Z,-90.00
2022-11-08T13:36:25.239Z,-91.00
2022-11-08T13:37:27.323Z,-91.00
2022-11-08T13:38:26.806Z,-91.00
2022-11-08T13:39:27.272Z,-92.00
2022-11-08T13:40:28.903Z,-93.00
2022-11-08T13:41:28.041Z,-91.00
2022-11-08T13:42:29.913Z,-91.00
2022-11-08T13:43:30.725Z,-93.00
2022-11-08T13:44:30.928Z,-92.00
2022-11-08T13:45:31.783Z,-90.00
2022-11-08T13:46:33.418Z,-92.00
2022-11-08T13:47:33.152Z,-92.00
2022-11-08T13:48:33.815Z,-91.00
2022-11-08T13:49:33.459Z,-90.00
2022-11-08T13:50:35.395Z,-91.00
2022-11-08T13:51:36.366Z,-90.00
2022-11-08T13:52:37.204Z,-91.00
2022-11-08T13:53:37.232Z,-91.00
2022-11-08T13:54:38.069Z,-91.00
2022-11-08T13:55:38.756Z,-91.00
2022-11-08T13:55:49.264Z,-92.00
2022-11-08T13:56:49.299Z,-91.00
2022-11-08T13:57:49.731Z,-91.00
2022-11-08T13:58:50.766Z,-91.00
2022-11-08T13:59:50.632Z,-93.00
2022-11-08T14:00:51.959Z,-90.00
2022-11-08T14:01:51.798Z,-90.00
2022-11-08T14:02:51.906Z,-92.00
2022-11-08T14:03:52.940Z,-91.00